createdAt,value
2022-08-22T00:00:11.831Z,3.33
2022-08-22T00:02:40.426Z,3.60
2022-08-22T00:02:45.720Z,2.60
2022-08-22T00:02:59.525Z,2.63
2022-08-22T00:03:09.032Z,3.03
2022-08-22T00:03:09.333Z,4.10
2022-08-22T00:05:37.413Z,3.80
2022-08-22T00:08:27.600Z,3.47
2022-08-22T00:10:59.438Z,3.90
2022-08-22T00:13:33.962Z,4.03
2022-08-22T00:16:28.964Z,3.78
2022-08-22T00:19:34.510Z,3.78
2022-08-22T00:22:01.353Z,3.60
2022-08-22T00:24:48.171Z,3.65
2022-08-22T00:27:27.167Z,3.55
2022-08-22T00:30:11.983Z,3.87
2022-08-22T00:33:05.255Z,3.67
2022-08-22T00:35:45.336Z,4.07
2022-08-22T00:38:36.230Z,3.78
2022-08-22T00:41:24.422Z,3.72
2022-08-22T00:44:11.724Z,3.80
2022-08-22T00:47:10.839Z,3.70
2022-08-22T00:49:40.505Z,3.72
2022-08-22T00:52:32.175Z,3.80
2022-08-22T00:55:06.937Z,4.25
2022-08-22T00:57:36.520Z,4.03
2022-08-22T01:00:21.818Z,4.10
2022-08-22T01:03:07.502Z,4.53
2022-08-22T01:06:24.607Z,4.30
2022-08-22T01:09:36.639Z,4.10
2022-08-22T01:13:08.141Z,4.47
2022-08-22T01:15:37.650Z,4.45
2022-08-22T01:18:16.347Z,3.80
2022-08-22T01:21:20.130Z,3.90
2022-08-22T01:24:09.459Z,3.83
2022-08-22T01:27:23.704Z,4.38
2022-08-22T01:30:03.431Z,4.33
2022-08-22T01:32:31.569Z,4.07
2022-08-22T01:35:09.805Z,4.57
2022-08-22T01:38:14.350Z,4.45
2022-08-22T01:40:59.016Z,5.00
2022-08-22T01:44:03.422Z,4.85
2022-08-22T01:46:51.552Z,4.88
2022-08-22T01:49:28.114Z,4.88
2022-08-22T01:52:34.811Z,4.60
2022-08-22T01:55:41.288Z,4.68
2022-08-22T01:58:23.572Z,4.78
2022-08-22T02:01:10.796Z,4.25
2022-08-22T02:04:01.909Z,4.72
2022-08-22T02:07:00.481Z,4.75
2022-08-22T02:10:03.398Z,4.70
2022-08-22T02:13:02.498Z,4.57
2022-08-22T02:15:41.676Z,4.70
2022-08-22T02:18:25.990Z,4.50
2022-08-22T02:21:24.254Z,4.60
2022-08-22T02:23:57.894Z,4.60
2022-08-22T02:26:27.601Z,5.00
2022-08-22T02:29:01.306Z,5.03
2022-08-22T02:32:05.742Z,4.40
2022-08-22T02:34:53.169Z,4.65
2022-08-22T02:37:31.975Z,5.03
2022-08-22T02:40:09.651Z,4.57
2022-08-22T02:42:43.206Z,4.88
2022-08-22T02:45:16.084Z,4.63
2022-08-22T02:47:57.314Z,4.72
2022-08-22T02:50:35.952Z,4.65
2022-08-22T02:53:17.320Z,4.60
2022-08-22T02:56:12.491Z,4.45
2022-08-22T02:58:45.594Z,4.45
2022-08-22T03:01:28.174Z,4.70
2022-08-22T03:04:32.149Z,4.60
2022-08-22T03:07:01.770Z,4.68
2022-08-22T03:09:41.757Z,4.43
2022-08-22T03:12:21.142Z,4.13
2022-08-22T03:14:54.526Z,4.43
2022-08-22T03:17:49.469Z,4.50
2022-08-22T03:20:42.526Z,4.65
2022-08-22T03:23:39.066Z,4.38
2022-08-22T03:26:18.984Z,4.40
2022-08-22T03:28:59.191Z,4.72
2022-08-22T03:31:28.693Z,4.20
2022-08-22T03:34:17.201Z,4.40
2022-08-22T03:37:02.144Z,4.50
2022-08-22T03:39:56.307Z,4.03
2022-08-22T03:42:53.121Z,3.83
2022-08-22T03:45:54.764Z,4.30
2022-08-22T03:48:27.711Z,4.60
2022-08-22T03:51:08.293Z,4.85
2022-08-22T03:54:12.457Z,4.53
2022-08-22T03:56:58.946Z,4.35
2022-08-22T03:59:34.412Z,4.40
2022-08-22T04:02:42.781Z,4.38
2022-08-22T04:05:58.383Z,4.60
2022-08-22T04:08:57.737Z,5.10
2022-08-22T04:11:46.255Z,4.15
2022-08-22T04:14:44.048Z,4.70
2022-08-22T04:17:17.027Z,4.45
2022-08-22T04:20:04.979Z,4.60
2022-08-22T04:23:26.799Z,4.93
2022-08-22T04:25:58.607Z,4.80
2022-08-22T04:28:34.611Z,4.68
2022-08-22T04:31:04.296Z,4.63
2022-08-22T04:33:40.875Z,4.40
2022-08-22T04:36:21.332Z,4.77
2022-08-22T04:38:56.258Z,5.07
2022-08-22T04:41:41.302Z,5.88
2022-08-22T04:44:27.165Z,4.90
2022-08-22T04:47:05.971Z,5.00
2022-08-22T04:49:38.377Z,5.20
2022-08-22T04:52:10.265Z,5.40
2022-08-22T04:55:02.175Z,5.25
2022-08-22T04:58:06.547Z,5.28
2022-08-22T05:00:42.483Z,5.05
2022-08-22T05:03:14.971Z,4.80
2022-08-22T05:05:45.020Z,4.80
2022-08-22T05:08:18.632Z,5.10
2022-08-22T05:10:49.061Z,5.07
2022-08-22T05:13:23.951Z,5.22
2022-08-22T05:15:56.962Z,4.93
2022-08-22T05:18:32.207Z,5.00
2022-08-22T05:21:01.887Z,4.80
2022-08-22T05:23:44.433Z,5.05
2022-08-22T05:26:13.456Z,5.30
2022-08-22T05:28:53.315Z,5.57
2022-08-22T05:31:34.654Z,5.10
2022-08-22T05:34:11.360Z,5.03
2022-08-22T05:36:46.635Z,5.33
2022-08-22T05:39:27.844Z,4.85
2022-08-22T05:41:56.895Z,5.30
2022-08-22T05:44:28.200Z,5.03
2022-08-22T05:47:10.210Z,5.30
2022-08-22T05:49:40.124Z,5.10
2022-08-22T05:52:19.594Z,5.18
2022-08-22T05:54:56.136Z,5.60
2022-08-22T05:57:31.189Z,6.00
2022-08-22T06:00:13.127Z,5.28
2022-08-22T06:03:10.653Z,5.35
2022-08-22T06:05:42.890Z,5.15
2022-08-22T06:08:25.012Z,5.25
2022-08-22T06:10:56.266Z,5.30
2022-08-22T06:13:44.244Z,5.45
2022-08-22T06:16:21.505Z,5.28
2022-08-22T06:18:51.237Z,5.45
2022-08-22T06:21:25.995Z,5.13
2022-08-22T06:23:57.480Z,5.18
2022-08-22T06:26:38.305Z,5.20
2022-08-22T06:29:08.554Z,5.18
2022-08-22T06:31:49.054Z,5.03
2022-08-22T06:34:23.564Z,5.00
2022-08-22T06:36:53.489Z,5.38
2022-08-22T06:39:27.939Z,4.90
2022-08-22T06:42:01.460Z,4.30
2022-08-22T06:44:51.715Z,4.50
2022-08-22T06:47:23.563Z,4.10
2022-08-22T06:49:57.289Z,4.60
2022-08-22T06:52:28.314Z,4.25
2022-08-22T06:55:01.658Z,4.50
2022-08-22T06:57:52.007Z,4.80
2022-08-22T07:00:19.470Z,4.23
2022-08-22T07:02:59.598Z,4.17
2022-08-22T07:05:29.669Z,4.40
2022-08-22T07:07:57.268Z,4.40
2022-08-22T07:10:25.065Z,4.47
2022-08-22T07:12:56.625Z,4.70
2022-08-22T07:15:35.360Z,4.85
2022-08-22T07:18:09.786Z,4.80
2022-08-22T07:20:45.140Z,4.72
2022-08-22T07:23:46.008Z,5.27
2022-08-22T07:26:27.772Z,4.97
2022-08-22T07:29:13.247Z,4.97
2022-08-22T07:31:58.828Z,5.35
2022-08-22T07:34:38.101Z,5.20
2022-08-22T07:37:31.989Z,5.00
2022-08-22T07:40:25.036Z,5.45
2022-08-22T07:43:24.962Z,4.80
2022-08-22T07:45:57.191Z,5.13
2022-08-22T07:48:28.613Z,4.90
2022-08-22T07:51:07.938Z,5.40
2022-08-22T07:53:42.255Z,4.40
2022-08-22T07:56:16.560Z,4.57
2022-08-22T07:58:46.010Z,4.55
2022-08-22T08:01:17.917Z,4.47
2022-08-22T08:03:53.139Z,4.70
2022-08-22T08:06:23.378Z,4.90
2022-08-22T08:08:51.686Z,4.78
2022-08-22T08:11:21.449Z,5.15
2022-08-22T08:13:52.967Z,4.90
2022-08-22T08:16:24.819Z,4.60
2022-08-22T08:18:56.660Z,4.85
2022-08-22T08:21:33.482Z,4.50
2022-08-22T08:24:01.722Z,4.60
2022-08-22T08:26:38.782Z,4.30
2022-08-22T08:29:07.272Z,4.60
2022-08-22T08:31:43.366Z,4.70
2022-08-22T08:34:19.946Z,4.30
2022-08-22T08:36:57.639Z,4.35
2022-08-22T08:39:35.021Z,4.07
2022-08-22T08:42:59.240Z,4.20
2022-08-22T08:45:59.412Z,4.27
2022-08-22T08:48:51.664Z,4.28
2022-08-22T08:51:37.906Z,3.85
2022-08-22T08:54:26.306Z,4.70
2022-08-22T08:57:14.918Z,4.18
2022-08-22T09:00:01.766Z,4.03
2022-08-22T09:02:40.501Z,4.57
2022-08-22T09:05:19.587Z,3.40
2022-08-22T09:08:43.085Z,3.40
2022-08-22T09:11:31.090Z,4.05
2022-08-22T09:14:12.396Z,3.60
2022-08-22T09:17:31.298Z,3.50
2022-08-22T09:20:17.665Z,4.15
2022-08-22T09:23:22.792Z,2.80
2022-08-22T09:25:59.627Z,3.00
2022-08-22T09:28:31.298Z,3.78
2022-08-22T09:31:16.524Z,3.65
2022-08-22T09:33:46.859Z,3.53
2022-08-22T09:36:30.754Z,3.67
2022-08-22T09:39:13.958Z,3.90
2022-08-22T09:42:08.158Z,3.10
2022-08-22T09:44:39.726Z,3.38
2022-08-22T09:47:12.293Z,3.00
2022-08-22T09:49:55.819Z,2.70
2022-08-22T09:52:57.934Z,2.90
2022-08-22T09:55:35.373Z,2.95
2022-08-22T09:58:45.610Z,2.80
2022-08-22T10:01:23.578Z,2.75
2022-08-22T10:04:28.025Z,2.80
2022-08-22T10:07:11.626Z,2.70
2022-08-22T10:09:53.381Z,2.92
2022-08-22T10:12:36.203Z,3.00
2022-08-22T10:15:25.437Z,3.00
2022-08-22T10:18:05.249Z,3.25
2022-08-22T10:20:42.241Z,3.00
2022-08-22T10:23:41.629Z,3.20
2022-08-22T10:26:35.252Z,2.90
2022-08-22T10:29:26.138Z,3.13
2022-08-22T10:32:00.079Z,2.90
2022-08-22T10:34:40.009Z,3.33
2022-08-22T10:37:32.687Z,3.88
2022-08-22T10:40:07.170Z,3.55
2022-08-22T10:42:47.553Z,3.20
2022-08-22T10:45:36.759Z,3.38
2022-08-22T10:48:23.407Z,3.03
2022-08-22T10:51:09.851Z,3.10
2022-08-22T10:53:52.611Z,3.10
2022-08-22T10:56:34.979Z,3.15
2022-08-22T10:59:27.501Z,3.22
2022-08-22T11:02:21.863Z,3.40
2022-08-22T11:05:25.725Z,3.22
2022-08-22T11:08:19.489Z,3.27
2022-08-22T11:11:06.917Z,2.80
2022-08-22T11:13:51.671Z,3.22
2022-08-22T11:17:23.569Z,2.88
2022-08-22T11:20:25.266Z,3.05
2022-08-22T11:23:27.093Z,2.63
2022-08-22T11:26:13.689Z,2.83
2022-08-22T11:28:56.409Z,3.30
2022-08-22T11:31:31.754Z,2.80
2022-08-22T11:34:33.765Z,2.85
2022-08-22T11:37:43.579Z,2.97
2022-08-22T11:40:41.451Z,3.58
2022-08-22T11:43:39.644Z,2.95
2022-08-22T11:46:21.537Z,2.90
2022-08-22T11:48:59.037Z,2.90
2022-08-22T11:51:57.217Z,2.78
2022-08-22T11:54:36.541Z,2.85
2022-08-22T11:57:26.203Z,3.22
2022-08-22T12:00:23.568Z,3.20
2022-08-22T12:03:23.222Z,3.10
2022-08-22T12:06:02.495Z,3.38
2022-08-22T12:08:29.362Z,2.80
2022-08-22T12:11:03.577Z,2.80
2022-08-22T12:14:06.148Z,3.17
2022-08-22T12:17:09.647Z,2.83
2022-08-22T12:20:16.136Z,2.53
2022-08-22T12:23:05.426Z,2.88
2022-08-22T12:25:35.924Z,2.58
2022-08-22T12:28:23.756Z,2.70
2022-08-22T12:31:13.237Z,2.40
2022-08-22T12:34:01.152Z,2.60
2022-08-22T12:37:03.459Z,2.30
2022-08-22T12:40:11.466Z,3.00
2022-08-22T12:42:48.939Z,2.70
2022-08-22T12:45:35.811Z,2.60
2022-08-22T12:48:13.307Z,2.97
2022-08-22T12:50:57.218Z,2.92
2022-08-22T12:53:57.647Z,2.60
2022-08-22T12:56:31.253Z,2.85
2022-08-22T12:59:26.468Z,2.70
2022-08-22T13:01:56.748Z,2.72
2022-08-22T13:04:33.569Z,2.72
2022-08-22T13:07:18.498Z,2.72
2022-08-22T13:09:57.695Z,3.00
2022-08-22T13:12:31.848Z,3.00
2022-08-22T13:15:19.240Z,2.85
2022-08-22T13:17:47.967Z,3.03
2022-08-22T13:20:28.452Z,2.70
2022-08-22T13:22:56.220Z,2.85
2022-08-22T13:25:26.296Z,2.83
2022-08-22T13:28:00.343Z,2.78
2022-08-22T13:30:37.339Z,2.60
2022-08-22T13:33:13.633Z,2.75
2022-08-22T13:35:51.856Z,2.80
2022-08-22T13:38:38.343Z,2.58
2022-08-22T13:41:19.008Z,2.50
2022-08-22T13:44:06.631Z,2.58
2022-08-22T13:46:39.126Z,2.45
2022-08-22T13:49:32.731Z,2.72
2022-08-22T13:52:02.296Z,2.80
2022-08-22T13:54:47.023Z,2.55
2022-08-22T13:57:29.310Z,3.22
2022-08-22T14:00:28.645Z,2.80
2022-08-22T14:03:13.272Z,3.20
2022-08-22T14:05:44.620Z,2.80
2022-08-22T14:08:27.661Z,3.05
2022-08-22T14:11:01.926Z,2.53
2022-08-22T14:13:42.853Z,2.70
2022-08-22T14:16:27.098Z,2.47
2022-08-22T14:19:08.160Z,2.90
2022-08-22T14:21:47.163Z,2.97
2022-08-22T14:24:26.927Z,2.67
2022-08-22T14:26:59.707Z,2.55
2022-08-22T14:29:50.753Z,2.40
2022-08-22T14:32:25.222Z,3.15
2022-08-22T14:35:35.382Z,3.20
2022-08-22T14:38:17.081Z,2.80
2022-08-22T14:40:45.692Z,2.33
2022-08-22T14:43:22.534Z,2.63
2022-08-22T14:46:05.694Z,2.40
2022-08-22T14:48:47.364Z,2.55
2022-08-22T14:51:24.421Z,2.42
2022-08-22T14:53:52.321Z,2.75
2022-08-22T14:56:28.116Z,2.85
2022-08-22T14:59:04.151Z,2.90
2022-08-22T15:01:35.458Z,2.53
2022-08-22T15:04:09.638Z,2.40
2022-08-22T15:06:52.242Z,2.40
2022-08-22T15:09:34.017Z,2.65
2022-08-22T15:12:03.813Z,2.92
2022-08-22T15:14:52.970Z,2.70
2022-08-22T15:17:36.574Z,2.40
2022-08-22T15:20:27.701Z,2.67
2022-08-22T15:22:59.047Z,2.70
2022-08-22T15:25:34.315Z,2.75
2022-08-22T15:28:05.787Z,2.85
2022-08-22T15:30:38.809Z,2.50
2022-08-22T15:33:16.712Z,2.78
2022-08-22T15:35:46.348Z,2.70
2022-08-22T15:38:36.370Z,2.30
2022-08-22T15:41:22.085Z,2.53
2022-08-22T15:44:01.177Z,2.45
2022-08-22T15:46:34.716Z,2.70
2022-08-22T15:49:19.988Z,2.60
2022-08-22T15:52:14.922Z,2.20
2022-08-22T15:54:53.818Z,2.30
2022-08-22T15:57:41.359Z,2.45
2022-08-22T16:00:29.757Z,2.40
2022-08-22T16:02:59.748Z,2.30
2022-08-22T16:05:43.040Z,2.70
2022-08-22T16:08:14.334Z,2.60
2022-08-22T16:11:03.953Z,2.33
2022-08-22T16:13:30.843Z,3.28
2022-08-22T16:16:03.461Z,2.35
2022-08-22T16:18:33.401Z,2.90
2022-08-22T16:21:05.989Z,2.88
2022-08-22T16:23:51.223Z,2.47
2022-08-22T16:26:29.642Z,2.92
2022-08-22T16:28:59.566Z,2.70
2022-08-22T16:31:56.339Z,2.60
2022-08-22T16:34:26.144Z,2.60
2022-08-22T16:37:08.647Z,2.75
2022-08-22T16:39:53.915Z,2.53
2022-08-22T16:42:24.807Z,2.35
2022-08-22T16:45:05.505Z,2.42
2022-08-22T16:47:41.769Z,2.30
2022-08-22T16:50:26.955Z,2.20
2022-08-22T16:53:06.293Z,2.70
2022-08-22T16:55:35.981Z,2.55
2022-08-22T16:58:18.070Z,2.53
2022-08-22T17:01:07.265Z,2.37
2022-08-22T17:03:39.958Z,2.22
2022-08-22T17:06:32.490Z,2.20
2022-08-22T17:09:25.995Z,2.50
2022-08-22T17:12:32.112Z,2.38
2022-08-22T17:15:21.275Z,2.45
2022-08-22T17:18:22.043Z,2.30
2022-08-22T17:21:25.629Z,2.25
2022-08-22T17:24:03.179Z,2.40
2022-08-22T17:26:48.234Z,2.35
2022-08-22T17:29:24.455Z,2.13
2022-08-22T17:32:18.036Z,2.20
2022-08-22T17:34:47.688Z,2.40
2022-08-22T17:37:26.572Z,2.33
2022-08-22T17:40:21.213Z,2.50
2022-08-22T17:42:57.944Z,2.30
2022-08-22T17:45:33.995Z,2.45
2022-08-22T17:48:12.510Z,2.50
2022-08-22T17:50:58.283Z,2.60
2022-08-22T17:53:28.646Z,2.40
2022-08-22T17:56:27.657Z,2.53
2022-08-22T17:59:09.548Z,2.50
2022-08-22T18:01:43.586Z,2.53
2022-08-22T18:04:33.327Z,2.60
2022-08-22T18:07:15.778Z,2.40
2022-08-22T18:09:49.166Z,2.63
2022-08-22T18:12:34.373Z,2.33
2022-08-22T18:15:19.611Z,2.40
2022-08-22T18:18:05.455Z,2.80
2022-08-22T18:20:52.381Z,2.60
2022-08-22T18:23:42.519Z,2.53
2022-08-22T18:26:24.020Z,2.80
2022-08-22T18:28:51.568Z,2.33
2022-08-22T18:31:48.082Z,2.50
2022-08-22T18:34:29.767Z,2.50
2022-08-22T18:37:24.546Z,2.40
2022-08-22T18:39:59.958Z,2.70
2022-08-22T18:42:48.027Z,2.45
2022-08-22T18:45:43.867Z,2.80
2022-08-22T18:48:37.199Z,3.05
2022-08-22T18:51:23.881Z,3.00
2022-08-22T18:53:51.516Z,3.20
2022-08-22T18:56:54.600Z,3.22
2022-08-22T18:59:59.989Z,3.22
2022-08-22T19:02:39.419Z,3.90
2022-08-22T19:05:12.209Z,3.10
2022-08-22T19:07:57.176Z,3.00
2022-08-22T19:10:53.992Z,3.47
2022-08-22T19:13:42.123Z,3.60
2022-08-22T19:16:32.080Z,5.40
2022-08-22T19:19:17.409Z,9.10
2022-08-22T19:22:23.774Z,13.35
2022-08-22T19:25:12.452Z,6.70
2022-08-22T19:27:44.732Z,5.97
2022-08-22T19:30:41.609Z,4.30
2022-08-22T19:33:38.450Z,4.00
2022-08-22T19:36:29.838Z,3.70
2022-08-22T19:39:00.022Z,4.03
2022-08-22T19:41:50.782Z,4.30
2022-08-22T19:44:20.612Z,4.63
2022-08-22T19:47:19.882Z,6.50
2022-08-22T19:50:00.838Z,14.15
2022-08-22T19:52:40.068Z,13.10
2022-08-22T19:55:21.992Z,13.07
2022-08-22T19:57:57.370Z,18.90
2022-08-22T20:00:57.919Z,17.45
2022-08-22T20:03:53.947Z,6.65
2022-08-22T20:06:43.096Z,4.72
2022-08-22T20:09:14.354Z,4.07
2022-08-22T20:12:15.681Z,4.00
2022-08-22T20:14:45.635Z,4.18
2022-08-22T20:17:24.805Z,4.15
2022-08-22T20:23:05.937Z,4.03
2022-08-22T20:25:51.955Z,3.80
2022-08-22T20:28:45.063Z,3.85
2022-08-22T20:31:22.096Z,3.80
2022-08-22T20:33:55.291Z,4.03
2022-08-22T20:36:28.828Z,3.80
2022-08-22T20:39:07.416Z,3.85
2022-08-22T20:41:39.067Z,3.20
2022-08-22T20:44:20.774Z,3.53
2022-08-22T20:47:11.365Z,3.60
2022-08-22T20:49:48.469Z,3.80
2022-08-22T20:52:28.145Z,3.80
2022-08-22T20:55:31.488Z,4.00
2022-08-22T20:58:02.582Z,3.78
2022-08-22T21:00:51.100Z,3.80
2022-08-22T21:03:36.961Z,3.92
2022-08-22T21:06:28.391Z,4.10
2022-08-22T21:09:39.452Z,4.10
2022-08-22T21:12:09.402Z,3.75
2022-08-22T21:14:44.340Z,4.13
2022-08-22T21:17:34.198Z,4.38
2022-08-22T21:20:22.715Z,4.30
2022-08-22T21:22:50.438Z,4.50
2022-08-22T21:25:17.493Z,4.32
2022-08-22T21:27:49.315Z,4.13
2022-08-22T21:30:24.487Z,4.20
2022-08-22T21:32:55.938Z,4.45
2022-08-22T21:35:32.204Z,4.10
2022-08-22T21:38:01.152Z,4.25
2022-08-22T21:40:35.009Z,4.30
2022-08-22T21:43:06.319Z,4.60
2022-08-22T21:45:39.010Z,4.10
2022-08-22T21:48:56.517Z,4.28
2022-08-22T21:51:45.200Z,4.50
2022-08-22T21:54:29.847Z,4.60
2022-08-22T21:56:59.537Z,4.15
2022-08-22T21:59:50.527Z,4.63
2022-08-22T22:02:39.635Z,4.35
2022-08-22T22:05:17.617Z,4.88
2022-08-22T22:07:46.639Z,4.20
2022-08-22T22:10:16.655Z,4.38
2022-08-22T22:12:45.572Z,4.57
2022-08-22T22:15:15.811Z,4.90
2022-08-22T22:17:43.405Z,4.50
2022-08-22T22:20:11.499Z,4.47
2022-08-22T22:22:46.029Z,4.72
2022-08-22T22:25:41.034Z,4.60
2022-08-22T22:28:16.739Z,4.77
2022-08-22T22:30:45.287Z,4.78
2022-08-22T22:33:12.169Z,4.65
2022-08-22T22:35:40.638Z,4.43
2022-08-22T22:38:08.366Z,4.97
2022-08-22T22:40:35.451Z,4.50
2022-08-22T22:43:02.430Z,4.80
2022-08-22T22:45:29.877Z,5.05
2022-08-22T22:47:57.093Z,5.10
2022-08-22T22:50:24.308Z,4.97
2022-08-22T22:52:51.250Z,5.32
2022-08-22T22:55:24.220Z,5.32
2022-08-22T22:57:58.642Z,5.60
2022-08-22T23:00:31.433Z,5.20
2022-08-22T23:03:03.092Z,5.45
2022-08-22T23:05:31.242Z,5.55
2022-08-22T23:07:58.680Z,5.35
2022-08-22T23:10:27.134Z,5.95
2022-08-22T23:12:54.088Z,5.60
2022-08-22T23:15:21.275Z,5.82
2022-08-22T23:17:48.410Z,5.60
2022-08-22T23:20:15.356Z,5.90
2022-08-22T23:22:44.990Z,5.60
2022-08-22T23:25:11.926Z,5.70
2022-08-22T23:27:38.824Z,5.32
2022-08-22T23:30:08.605Z,5.65
2022-08-22T23:32:36.952Z,5.70
2022-08-22T23:35:04.932Z,5.35
2022-08-22T23:37:31.822Z,5.53
2022-08-22T23:39:58.721Z,4.93
2022-08-22T23:42:25.866Z,5.35
2022-08-22T23:44:52.739Z,5.28
2022-08-22T23:47:19.578Z,5.78
2022-08-22T23:49:46.606Z,5.47
2022-08-22T23:52:14.258Z,5.63
2022-08-22T23:54:41.512Z,5.38
2022-08-22T23:57:11.562Z,6.00
2022-08-22T23:59:46.203Z,5.80
